HTZAHTKJ

Guest
Details From HTZA - ZANZIBAR
To HTKJ - KILIMANJARO INTL
Flight Number -
Tags generated
Created
Modified
Stats Distance 222 nm / 411 km
Max Altitude 28,600 ft / 8,717 m
Waypoints 4
Social Downloads 5
Likes 0
Share VATSIM

Download

Looking for another format? Having issues loading an existing format? Contact us
Advertisement - Login to hide

Notes

Basic altitude profile: - Ascent Rate: 2500ft/min - Ascent Speed: 250kts - Cruise Altitude: 35000ft - Cruise Speed: 420kts - Descent Rate: 1500ft/min - Descent Speed: 250kts Options: - Use NATs: yes - Use PACOTS: yes - Use low airways: yes - Use high airways: yes

Route

HTZA GEREN UB533 LUDOL HTKJ

ID Type Via Altitude Latitude Longitude Leg Dist Tot Dist Heading (true) Name
O HTZA APT - 0 ft / 0 m -6.22202˚ 39.22488˚ - 0 nm - ZANZIBAR
GEREN FIX - 28,600 ft / 8,717 m -5.06480˚ 38.46110˚ 83 nm 83 nm 327° / 327° -
LUDOL FIX UB533 (AWY-HI) 24,500 ft / 7,468 m -3.81602˚ 37.96136˚ 80 nm 163 nm 338° / 338° -
O HTKJ APT - 0 ft / 0 m -3.42946˚ 37.07450˚ 58 nm 221 nm 294° / 294° KILIMANJARO INTL

Altitude Profile

Advertisement - Login to hide

Weather


0- 5 10 15 20 25 30 35+ Temperature / ° C

Clouds and Precipitation
Forecast for 2018-05-20 18:00 UTC. Updated 3 hours ago

Ground ~20,000 ft ~40,000 ft Winds

HTZA

Details ICAO HTZA (ZNZ)
Name ZANZIBAR
Region Tanzania
Timezone Africa/Dar_es_Salaam (UTC+3.0)
Stats Elevation 54 ft / 16 m (AMSL)
Location -6.222024° 39.224885°
Runways 1
Magnetic Variation 1.805° W

METAR

HTZA 201900Z 07005KT 9999 FEW016 SCT080 25/24 Q1013 NOSIG

Decode

TAF

TAF HTZA 201700Z 2018/2118 16005KT 9999 SCT018 FEW020CB BECMG 2100/2102 22010KT BKN016 FEW018CB SCT070 PROB30 TEMPO 2103/2110 8000 TSRA BECMG 2114/2116 16010KT SCT018 FEW020CB

Decode

Departure Runways

ID Width Length Bearing (true) Bearing (mag) Surface Threshold Offset Overrun Length
18 148 ft / 45 m 8,100 ft / 2,469 m 174.27° 176.08° Asphalt 0 ft / 0 m 0 ft / 0 m
36 148 ft / 45 m 8,100 ft / 2,469 m 354.27° 356.08° Asphalt 0 ft / 0 m 0 ft / 0 m

HTKJ

Details ICAO HTKJ (JRO)
Name KILIMANJARO INTL
Region Tanzania
Timezone Africa/Dar_es_Salaam (UTC+3.0)
Stats Elevation 2,932 ft / 894 m (AMSL)
Location -3.429455° 37.074499°
Runways 1
Magnetic Variation 0.116° W

METAR

HTKJ 201900Z 12005KT 9999 SCT025 BKN080 22/17 Q1017 NOSIG

Decode

TAF

TAF HTKJ 201700Z 2018/2118 00000KT 9999 SCT025 BKN080 BECMG 2112/2116 09005KT SCT028

Decode

Destination Runways

ID Width Length Bearing (true) Bearing (mag) Surface Threshold Offset Overrun Length
09 148 ft / 45 m 11,818 ft / 3,602 m 87.51° 87.63° Asphalt 0 ft / 0 m 197 ft / 60 m
27 148 ft / 45 m 11,818 ft / 3,602 m 267.51° 267.63° Asphalt 0 ft / 0 m 197 ft / 60 m

Approach Navaids

Runway Type Ident Frequency Range Bearing (true) Bearing (mag) Slope Elevation
09 Localiser KK 110.90 MHz 18 nm / 33 km 87.43° 87.55° - 2,932 ft / 894 m (AMSL)
09 Glidescope KK 110.90 MHz 10 nm / 19 km 87.51° 87.63° 3.00° 2,932 ft / 894 m (AMSL)

Popular Alternatives